Time;durP1;ratioP1;P1;durP2;ratioP2;P2;SDS_P1;SDS_P2;PMS_P1;PMS_P2;Temp;Humidity;BMP_temperature;BMP_pressure;BME280_temperature;BME280_humidity;BME280_pressure;Samples;Min_cycle;Max_cycle;Signal;HPM_P1;HPM_P2
2022/06/01 00:00:16;;;;;;;0.90;0.90;;;22.70;47.40;;;;;;5026737;28;20577;-72
2022/06/01 00:02:41;;;;;;;1.13;0.97;;;22.70;47.30;;;;;;5026708;28;20271;-72
2022/06/01 00:05:07;;;;;;;1.10;1.00;;;22.70;47.40;;;;;;5026755;28;20168;-72
2022/06/01 00:07:33;;;;;;;0.87;0.70;;;22.70;47.80;;;;;;5026724;28;20180;-72
2022/06/01 00:09:58;;;;;;;0.73;0.73;;;22.60;68.30;;;;;;5026362;28;20272;-72
2022/06/01 00:12:24;;;;;;;1.57;1.00;;;22.70;47.40;;;;;;5026790;28;20209;-72
2022/06/01 00:14:50;;;;;;;1.03;1.03;;;22.70;47.50;;;;;;5025338;28;20184;-72
2022/06/01 00:17:16;;;;;;;2.83;0.93;;;22.00;47.30;;;;;;5026373;28;20181;-72
2022/06/01 00:19:42;;;;;;;0.90;0.90;;;25.00;48.70;;;;;;5026546;28;20676;-72
2022/06/01 00:22:14;;;;;;;2.87;0.70;;;22.70;47.80;;;;;;5026651;28;20432;-72
2022/06/01 00:24:45;;;;;;;1.37;0.80;;;23.00;46.90;;;;;;5026666;28;20473;-72
2022/06/01 00:27:12;;;;;;;0.90;0.90;;;22.70;47.70;;;;;;5026717;28;20435;-72
2022/06/01 00:29:38;;;;;;;0.87;0.87;;;23.00;47.80;;;;;;5026508;28;20415;-72
2022/06/01 00:32:04;;;;;;;1.03;1.03;;;23.20;47.80;;;;;;5026418;28;20423;-72
2022/06/01 00:34:30;;;;;;;0.70;0.70;;;22.70;47.40;;;;;;5026364;28;20415;-72
2022/06/01 00:36:55;;;;;;;0.90;0.90;;;22.60;47.70;;;;;;5026532;28;20411;-72
2022/06/01 00:39:21;;;;;;;1.23;0.93;;;22.80;47.80;;;;;;5026453;28;20181;-72
2022/06/01 00:41:47;;;;;;;0.70;0.60;;;23.30;47.90;;;;;;5026156;28;20547;-72
2022/06/01 00:44:12;;;;;;;1.17;0.90;;;22.80;47.70;;;;;;5026175;28;20384;-72
2022/06/01 00:46:38;;;;;;;2.03;0.97;;;22.70;47.80;;;;;;5025961;28;20189;-72
2022/06/01 00:49:18;;;;;;;0.80;0.80;;;22.70;47.70;;;;;;5028090;28;20177;-72
2022/06/01 00:51:46;;;;;;;0.97;0.97;;;22.70;46.40;;;;;;5029804;28;20314;-72
2022/06/01 00:54:12;;;;;;;1.17;0.80;;;22.50;47.50;;;;;;5029468;28;20423;-72
2022/06/01 00:56:53;;;;;;;0.90;0.90;;;24.60;48.40;;;;;;5029605;28;20434;-72
2022/06/01 00:59:23;;;;;;;1.00;0.87;;;22.70;47.50;;;;;;5029698;28;20392;-72
2022/06/01 01:01:51;;;;;;;1.03;1.03;;;22.70;47.40;;;;;;5029122;28;20452;-72
2022/06/01 01:04:17;;;;;;;1.00;1.00;;;22.90;47.60;;;;;;5029507;28;20832;-72
2022/06/01 01:06:46;;;;;;;1.43;0.70;;;22.80;47.60;;;;;;5029376;28;20487;-72
2022/06/01 01:09:12;;;;;;;1.10;1.10;;;22.70;47.20;;;;;;5029139;28;20169;-72
2022/06/01 01:11:42;;;;;;;0.73;0.73;;;22.60;47.40;;;;;;5029410;28;20435;-72
2022/06/01 01:14:08;;;;;;;1.10;1.00;;;22.70;47.70;;;;;;5029541;28;20774;-72
2022/06/01 01:16:34;;;;;;;1.37;0.87;;;22.70;47.70;;;;;;5029188;28;20431;-72
2022/06/01 01:19:01;;;;;;;0.63;0.63;;;23.50;48.00;;;;;;5029079;28;20284;-72
2022/06/01 01:21:38;;;;;;;0.93;0.93;;;22.80;47.20;;;;;;5029058;28;20471;-72
2022/06/01 01:24:27;;;;;;;1.43;0.93;;;22.70;46.40;;;;;;5029237;28;20757;-72
2022/06/01 01:26:56;;;;;;;1.03;1.03;;;22.70;46.30;;;;;;5029290;28;20464;-72
2022/06/01 01:29:37;;;;;;;0.90;0.90;;;22.60;47.50;;;;;;5029103;28;20506;-72
2022/06/01 01:32:05;;;;;;;2.03;1.00;;;22.70;46.50;;;;;;5029159;28;20453;-72
2022/06/01 01:34:32;;;;;;;1.27;1.27;;;22.70;47.20;;;;;;5028663;28;20519;-72
2022/06/01 01:37:02;;;;;;;0.97;0.93;;;23.50;47.70;;;;;;5028720;28;20446;-72
2022/06/01 01:39:30;;;;;;;0.80;0.80;;;22.90;47.40;;;;;;5019597;28;20431;-72
2022/06/01 01:41:56;;;;;;;0.60;0.60;;;22.70;47.40;;;;;;5028945;28;20463;-72
2022/06/01 01:44:31;;;;;;;0.73;0.73;;;23.20;47.80;;;;;;5029031;28;20412;-72
2022/06/01 01:46:58;;;;;;;1.17;0.70;;;22.60;47.40;;;;;;5027441;28;20872;-72
2022/06/01 01:49:30;;;;;;;0.87;0.87;;;22.60;47.10;;;;;;5028955;28;20412;-72
2022/06/01 01:51:59;;;;;;;1.30;1.23;;;22.60;46.20;;;;;;5029078;28;20515;-72
2022/06/01 01:54:37;;;;;;;0.70;0.70;;;22.70;47.60;;;;;;5029197;28;20459;-72
2022/06/01 01:57:05;;;;;;;1.03;1.03;;;22.90;47.80;;;;;;5009092;28;20901;-72
2022/06/01 01:59:51;;;;;;;0.60;0.60;;;22.60;47.20;;;;;;5007961;28;20415;-72
2022/06/01 02:02:24;;;;;;;0.70;0.70;;;22.60;46.30;;;;;;5009002;28;20508;-72
2022/06/01 02:07:58;;;;;;;1.10;1.00;;;22.60;46.20;;;;;;5008720;28;20450;-72
2022/06/01 02:13:08;;;;;;;0.90;0.90;;;22.40;46.80;;;;;;5028340;28;20430;-72
2022/06/01 02:15:38;;;;;;;1.20;1.20;;;22.80;47.60;;;;;;5028275;28;20408;-72
2022/06/01 02:18:09;;;;;;;1.30;0.80;;;22.60;47.30;;;;;;5028151;28;20213;-72
2022/06/01 02:20:43;;;;;;;0.87;0.83;;;22.60;47.20;;;;;;5028198;28;20520;-72
2022/06/01 02:23:14;;;;;;;0.90;0.90;;;22.60;46.10;;;;;;5028619;28;20828;-72
2022/06/01 02:25:44;;;;;;;1.57;1.23;;;23.80;47.90;;;;;;5028190;28;20406;-72
2022/06/01 02:28:10;;;;;;;0.90;0.90;;;22.60;47.30;;;;;;5028419;28;20469;-72
2022/06/01 02:30:40;;;;;;;0.77;0.77;;;23.50;47.60;;;;;;5027989;28;20492;-72
2022/06/01 02:33:11;;;;;;;0.93;0.93;;;23.60;47.60;;;;;;5028287;28;20487;-72
2022/06/01 02:35:43;;;;;;;0.97;0.83;;;23.10;47.20;;;;;;5028070;28;20499;-72
2022/06/01 02:38:14;;;;;;;0.93;0.90;;;22.60;47.00;;;;;;5028123;28;20495;-72
2022/06/01 02:40:40;;;;;;;0.70;0.70;;;22.30;46.90;;;;;;5027693;28;20906;-72
2022/06/01 02:43:06;;;;;;;0.93;0.93;;;22.60;47.00;;;;;;5027835;28;20499;-72
2022/06/01 02:45:31;;;;;;;0.63;0.60;;;23.20;47.30;;;;;;5027872;28;20225;-72
2022/06/01 02:48:01;;;;;;;0.80;0.80;;;23.40;47.40;;;;;;5027885;28;20165;-72
2022/06/01 02:50:30;;;;;;;0.83;0.83;;;22.50;47.10;;;;;;5027843;28;20313;-72
2022/06/01 02:52:57;;;;;;;5.50;1.10;;;23.30;47.40;;;;;;5027667;28;20540;-72
2022/06/01 02:55:24;;;;;;;0.83;0.83;;;22.60;46.90;;;;;;5027712;28;20424;-72
2022/06/01 02:57:51;;;;;;;0.70;0.70;;;22.40;46.90;;;;;;5026189;28;20510;-72
2022/06/01 03:00:28;;;;;;;1.03;0.97;;;22.40;46.80;;;;;;5027151;28;20451;-72
2022/06/01 03:02:57;;;;;;;1.10;1.10;;;22.90;47.20;;;;;;5027693;28;20725;-72
2022/06/01 03:05:26;;;;;;;0.83;0.83;;;22.50;46.90;;;;;;5027646;28;20412;-72
2022/06/01 03:07:52;;;;;;;0.87;0.87;;;23.20;47.00;;;;;;5027608;28;20408;-72
2022/06/01 03:10:18;;;;;;;0.90;0.80;;;22.50;47.00;;;;;;5027238;28;20484;-72
2022/06/01 03:12:44;;;;;;;0.70;0.70;;;22.50;46.90;;;;;;5027181;28;20227;-72
2022/06/01 03:15:13;;;;;;;0.87;0.87;;;23.80;47.50;;;;;;5027084;28;20548;-72
2022/06/01 03:17:39;;;;;;;1.13;1.13;;;22.50;46.70;;;;;;5025533;28;20175;-72
2022/06/01 03:20:08;;;;;;;1.07;1.07;;;22.40;68.80;;;;;;5026345;28;20920;-73
2022/06/01 03:22:35;;;;;;;1.53;0.87;;;22.60;46.50;;;;;;5027325;28;20220;-72
2022/06/01 03:25:03;;;;;;;2.30;1.10;;;22.70;46.70;;;;;;5027361;28;20400;-72
2022/06/01 03:27:28;;;;;;;1.00;1.00;;;22.60;46.60;;;;;;5027969;28;20753;-72
2022/06/01 03:29:54;;;;;;;1.00;1.00;;;22.60;62.80;;;;;;5027250;28;20494;-72
2022/06/01 03:32:19;;;;;;;1.53;1.40;;;22.60;46.80;;;;;;5025558;28;20173;-73
2022/06/01 03:34:45;;;;;;;0.80;0.80;;;23.50;47.40;;;;;;5018393;28;20165;-72
2022/06/01 03:37:10;;;;;;;0.80;0.80;;;22.50;46.90;;;;;;5018268;28;20258;-72
2022/06/01 03:39:36;;;;;;;0.80;0.80;;;22.60;47.00;;;;;;5027260;28;20303;-72
2022/06/01 03:42:02;;;;;;;0.90;0.90;;;22.60;46.80;;;;;;5027142;28;20659;-72
2022/06/01 03:47:11;;;;;;;0.70;0.70;;;22.80;46.10;;;;;;5026882;28;20539;-72
2022/06/01 03:49:38;;;;;;;0.90;0.90;;;22.60;47.00;;;;;;5027109;28;20408;-72
2022/06/01 03:52:04;;;;;;;1.00;0.90;;;22.80;47.20;;;;;;5027015;28;20259;-72
2022/06/01 03:54:30;;;;;;;0.97;0.97;;;22.50;46.40;;;;;;5027108;28;20494;-73
2022/06/01 03:56:56;;;;;;;0.90;0.90;;;22.30;46.70;;;;;;5026704;28;20587;-72
2022/06/01 03:59:21;;;;;;;1.17;1.17;;;22.80;46.80;;;;;;5026804;28;20178;-72
2022/06/01 04:01:47;;;;;;;0.97;0.87;;;22.50;46.80;;;;;;5026335;28;20580;-72
2022/06/01 04:04:12;;;;;;;1.00;1.00;;;22.80;46.90;;;;;;5026890;28;20230;-72
2022/06/01 04:06:38;;;;;;;1.00;1.00;;;22.50;46.90;;;;;;5026623;28;20192;-72
2022/06/01 04:09:03;;;;;;;0.57;0.57;;;22.70;47.10;;;;;;5026614;28;20207;-72
2022/06/01 04:11:29;;;;;;;1.23;1.13;;;22.50;46.90;;;;;;5026745;28;20564;-72
2022/06/01 04:13:55;;;;;;;0.87;0.87;;;22.60;46.90;;;;;;5026685;28;20259;-72
2022/06/01 04:16:20;;;;;;;1.07;1.07;;;22.50;47.00;;;;;;5026489;28;20196;-70
2022/06/01 04:18:47;;;;;;;0.80;0.80;;;22.60;47.20;;;;;;5024386;28;20189;-70
2022/06/01 04:21:14;;;;;;;1.20;1.10;;;22.50;47.10;;;;;;5024299;28;20641;-69
2022/06/01 04:23:40;;;;;;;0.90;0.80;;;22.80;47.40;;;;;;5024912;28;20935;-69
2022/06/01 04:26:05;;;;;;;0.83;0.83;;;22.60;47.40;;;;;;5026022;28;20440;-69
2022/06/01 04:28:31;;;;;;;1.00;0.90;;;22.50;47.20;;;;;;5026753;28;20204;-69
2022/06/01 04:30:56;;;;;;;1.10;1.10;;;23.30;47.60;;;;;;5026484;28;20245;-69
2022/06/01 04:33:22;;;;;;;0.83;0.83;;;22.50;47.30;;;;;;5026661;28;20290;-69
2022/06/01 04:35:48;;;;;;;1.77;1.00;;;22.60;47.20;;;;;;5018622;28;20188;-69
2022/06/01 04:38:13;;;;;;;0.90;0.90;;;24.30;48.20;;;;;;5006863;28;20185;-69
2022/06/01 04:40:44;;;;;;;1.37;1.20;;;23.00;47.50;;;;;;5006572;28;20202;-69
2022/06/01 04:43:12;;;;;;;1.00;1.00;;;22.50;46.10;;;;;;5006634;28;20254;-69
2022/06/01 04:45:38;;;;;;;1.90;0.90;;;22.50;47.20;;;;;;5006504;28;20510;-70
2022/06/01 04:48:03;;;;;;;0.90;0.90;;;22.50;47.60;;;;;;5006458;28;20432;-70
2022/06/01 04:50:29;;;;;;;1.10;1.00;;;22.50;47.30;;;;;;5006526;28;20258;-70
2022/06/01 04:52:54;;;;;;;0.80;0.70;;;22.80;47.30;;;;;;5014586;28;20177;-70
2022/06/01 04:55:21;;;;;;;0.90;0.90;;;22.50;47.40;;;;;;5026488;28;20649;-69
2022/06/01 04:57:46;;;;;;;0.77;0.77;;;22.50;47.60;;;;;;5026176;28;20173;-69
2022/06/01 05:00:13;;;;;;;0.73;0.70;;;22.50;47.50;;;;;;5025821;28;20962;-69
2022/06/01 05:02:38;;;;;;;0.93;0.93;;;22.60;68.80;;;;;;5026342;28;20222;-69
2022/06/01 05:05:04;;;;;;;1.10;1.10;;;22.40;47.50;;;;;;5026114;28;20514;-69
2022/06/01 05:07:30;;;;;;;0.70;0.70;;;21.90;46.70;;;;;;5017875;28;20468;-69
2022/06/01 05:09:56;;;;;;;1.13;1.03;;;22.60;68.90;;;;;;5025917;28;20468;-69
2022/06/01 05:12:22;;;;;;;0.90;0.90;;;22.70;47.60;;;;;;5025233;28;20185;-69
2022/06/01 05:14:47;;;;;;;1.03;1.00;;;22.60;47.40;;;;;;5026242;28;20226;-69
2022/06/01 05:17:13;;;;;;;0.83;0.83;;;22.60;47.50;;;;;;5025751;28;20416;-69
2022/06/01 05:19:38;;;;;;;1.03;1.00;;;22.40;47.30;;;;;;5025692;28;20252;-69
2022/06/01 05:22:04;;;;;;;1.17;1.17;;;24.10;48.30;;;;;;5025733;28;20248;-69
2022/06/01 05:24:30;;;;;;;1.23;1.23;;;22.80;47.70;;;;;;5025675;28;20189;-69
2022/06/01 05:26:55;;;;;;;1.13;1.13;;;23.00;47.70;;;;;;5025708;28;20196;-69
2022/06/01 05:29:22;;;;;;;0.83;0.83;;;22.40;47.50;;;;;;5025836;28;20173;-69
2022/06/01 05:31:48;;;;;;;1.40;1.30;;;22.60;47.60;;;;;;5025638;28;20197;-69
2022/06/01 05:34:14;;;;;;;1.00;1.00;;;23.30;48.00;;;;;;5026936;28;20431;-69
2022/06/01 05:36:39;;;;;;;1.00;1.00;;;22.30;47.30;;;;;;5029131;28;20423;-69
2022/06/01 05:39:05;;;;;;;1.30;1.20;;;22.50;47.70;;;;;;5029079;28;20263;-69
2022/06/01 05:41:30;;;;;;;1.00;0.90;;;22.50;47.70;;;;;;5028818;28;20212;-69
2022/06/01 05:43:56;;;;;;;0.87;0.87;;;22.50;47.60;;;;;;5028805;28;20197;-69
2022/06/01 05:46:22;;;;;;;0.80;0.80;;;22.60;47.70;;;;;;5025526;28;20185;-69
2022/06/01 05:48:48;;;;;;;1.00;1.00;;;23.80;48.10;;;;;;5026415;28;20189;-69
2022/06/01 05:51:14;;;;;;;1.20;1.10;;;22.50;47.50;;;;;;5027789;28;21083;-69
2022/06/01 05:53:39;;;;;;;0.83;0.83;;;22.50;47.80;;;;;;5028381;28;20283;-69
2022/06/01 05:56:05;;;;;;;0.70;0.70;;;22.80;47.60;;;;;;5028177;28;20264;-69
2022/06/01 05:58:32;;;;;;;1.00;0.97;;;22.50;47.70;;;;;;5028430;28;20427;-69
2022/06/01 06:01:02;;;;;;;0.60;0.60;;;22.50;47.50;;;;;;5028359;28;20646;-69
2022/06/01 06:03:27;;;;;;;0.97;0.97;;;22.90;47.80;;;;;;5028616;28;20447;-70
2022/06/01 06:06:13;;;;;;;1.07;0.90;;;22.20;48.00;;;;;;5028139;28;20444;-70
2022/06/01 06:08:45;;;;;;;1.03;0.80;;;22.50;47.70;;;;;;5028342;28;20185;-70
2022/06/01 06:11:12;;;;;;;1.90;1.13;;;22.70;47.70;;;;;;5027941;28;20436;-70
2022/06/01 06:13:38;;;;;;;1.00;0.83;;;22.60;47.60;;;;;;5027497;28;20425;-70
2022/06/01 06:16:05;;;;;;;0.97;0.97;;;22.60;47.70;;;;;;5027526;28;20631;-70
2022/06/01 06:18:30;;;;;;;0.97;0.97;;;22.70;47.90;;;;;;5028063;28;20268;-70
2022/06/01 06:20:56;;;;;;;1.27;1.13;;;21.60;47.30;;;;;;5027064;28;20471;-70
2022/06/01 06:23:22;;;;;;;0.87;0.83;;;22.50;47.80;;;;;;5027745;28;20173;-70
2022/06/01 06:25:48;;;;;;;0.87;0.87;;;21.10;47.10;;;;;;5027830;28;20188;-69
2022/06/01 06:28:14;;;;;;;1.63;1.13;;;22.40;47.90;;;;;;5027724;28;20173;-69
2022/06/01 06:30:40;;;;;;;2.63;0.90;;;22.50;47.90;;;;;;5047883;28;20531;-69
2022/06/01 06:33:07;;;;;;;0.80;0.80;;;23.30;48.30;;;;;;5033432;28;20427;-69
2022/06/01 06:35:33;;;;;;;1.10;1.00;;;22.50;47.80;;;;;;5016062;28;20424;-69
2022/06/01 06:37:58;;;;;;;1.00;1.00;;;22.40;48.00;;;;;;5012188;28;20440;-69
2022/06/01 06:40:24;;;;;;;1.10;1.10;;;23.20;48.40;;;;;;5018733;28;21014;-69
2022/06/01 06:42:51;;;;;;;0.90;0.90;;;22.50;48.10;;;;;;5013344;28;20265;-69
2022/06/01 06:45:17;;;;;;;1.10;1.00;;;22.50;48.10;;;;;;5007903;28;20404;-69
2022/06/01 06:47:42;;;;;;;0.93;0.90;;;22.50;48.50;;;;;;5010365;28;20509;-70
2022/06/01 06:50:12;;;;;;;0.80;0.80;;;23.80;49.30;;;;;;5015200;28;20561;-70
2022/06/01 06:52:38;;;;;;;1.20;1.20;;;22.50;48.20;;;;;;5018952;28;20668;-70
2022/06/01 06:55:04;;;;;;;1.37;1.20;;;22.90;48.60;;;;;;5018549;28;20470;-69
2022/06/01 06:57:30;;;;;;;1.57;1.13;;;22.50;48.20;;;;;;5025298;28;20173;-69
2022/06/01 06:59:55;;;;;;;1.03;0.93;;;22.30;65.00;;;;;;5012760;28;20477;-69
2022/06/01 07:02:21;;;;;;;0.90;0.90;;;22.70;48.80;;;;;;5007986;28;20240;-69
2022/06/01 07:04:47;;;;;;;1.73;0.90;;;22.60;48.80;;;;;;5008022;28;20268;-69
2022/06/01 07:07:14;;;;;;;1.00;1.00;;;22.50;48.50;;;;;;5007667;28;20170;-69
2022/06/01 07:09:40;;;;;;;0.83;0.83;;;22.50;48.60;;;;;;5007660;28;20838;-69
2022/06/01 07:12:06;;;;;;;1.20;0.97;;;22.30;48.50;;;;;;5007571;28;20448;-69
2022/06/01 07:14:32;;;;;;;1.13;1.13;;;22.50;48.60;;;;;;5007558;28;20325;-69
2022/06/01 07:17:01;;;;;;;0.80;0.80;;;22.50;48.50;;;;;;5007553;28;20507;-69
2022/06/01 07:19:27;;;;;;;4.53;1.30;;;22.20;48.40;;;;;;5009679;28;20289;-69
2022/06/01 07:21:54;;;;;;;1.00;1.00;;;22.50;48.70;;;;;;5027212;28;20464;-69
2022/06/01 07:24:20;;;;;;;1.77;0.97;;;22.40;48.50;;;;;;5026920;28;20419;-69
2022/06/01 07:26:47;;;;;;;1.10;1.00;;;22.50;48.60;;;;;;5027085;28;20411;-69
2022/06/01 07:29:15;;;;;;;1.03;0.90;;;22.70;48.60;;;;;;5025322;28;20432;-69
2022/06/01 07:31:42;;;;;;;1.03;0.97;;;22.90;48.30;;;;;;5020837;28;20540;-69
2022/06/01 07:34:08;;;;;;;1.47;0.93;;;23.00;48.50;;;;;;5031749;28;20443;-69
2022/06/01 07:36:35;;;;;;;1.03;0.80;;;22.40;48.10;;;;;;5026469;28;20645;-69
2022/06/01 07:44:39;;;;;;;1.30;1.30;;;22.60;47.20;;;;;;5007692;28;20447;-69
2022/06/01 07:47:04;;;;;;;2.40;0.90;;;23.10;48.70;;;;;;5024812;28;20483;-69
2022/06/01 07:49:30;;;;;;;1.40;1.40;;;22.50;48.50;;;;;;5026370;28;20420;-69
2022/06/01 07:51:56;;;;;;;0.90;0.90;;;22.50;48.40;;;;;;5026768;28;20196;-69
2022/06/01 07:54:22;;;;;;;1.43;0.87;;;22.50;48.30;;;;;;5026541;28;20253;-69
2022/06/01 07:56:48;;;;;;;1.07;1.07;;;22.90;48.50;;;;;;5026642;28;20238;-69
2022/06/01 07:59:13;;;;;;;0.97;0.97;;;22.80;48.40;;;;;;5025475;28;20456;-69
2022/06/01 08:01:40;;;;;;;1.03;1.03;;;22.50;48.10;;;;;;5026385;28;20209;-69
2022/06/01 08:04:06;;;;;;;1.33;0.93;;;22.70;47.90;;;;;;5026536;28;20181;-69
2022/06/01 08:06:34;;;;;;;1.80;0.90;;;22.50;47.90;;;;;;5026584;28;20443;-69
2022/06/01 08:08:59;;;;;;;0.63;0.63;;;22.50;47.70;;;;;;5021315;28;20412;-69
2022/06/01 08:14:12;;;;;;;0.77;0.77;;;22.60;48.00;;;;;;5026109;28;20553;-69
2022/06/01 08:16:39;;;;;;;1.33;1.00;;;22.40;47.60;;;;;;5023146;28;20430;-69
2022/06/01 08:19:06;;;;;;;0.90;0.60;;;23.10;47.90;;;;;;5025893;28;20523;-69
2022/06/01 08:21:32;;;;;;;0.70;0.70;;;23.60;48.10;;;;;;5025957;28;20460;-69
2022/06/01 08:23:57;;;;;;;0.60;0.60;;;22.40;47.40;;;;;;5025580;28;20797;-69
2022/06/01 08:26:23;;;;;;;0.70;0.70;;;22.40;47.70;;;;;;5020145;28;20428;-69
2022/06/01 08:28:49;;;;;;;1.07;1.07;;;21.30;47.00;;;;;;5025955;28;20565;-69
2022/06/01 08:31:15;;;;;;;0.67;0.67;;;22.40;47.60;;;;;;5025598;28;20319;-69
2022/06/01 08:33:41;;;;;;;0.60;0.60;;;22.50;47.70;;;;;;5026078;28;20255;-69
2022/06/01 08:36:06;;;;;;;1.13;1.00;;;22.40;47.70;;;;;;5025729;28;20565;-69
2022/06/01 08:38:32;;;;;;;0.90;0.90;;;22.90;47.60;;;;;;5025913;28;20204;-69
2022/06/01 08:41:03;;;;;;;0.97;0.80;;;23.00;47.90;;;;;;5025460;28;20201;-69
2022/06/01 08:43:34;;;;;;;0.90;0.90;;;22.50;46.20;;;;;;5025782;28;20169;-70
2022/06/01 08:46:01;;;;;;;1.30;0.80;;;22.50;47.40;;;;;;5025525;28;20412;-69
2022/06/01 08:48:41;;;;;;;0.97;0.97;;;22.60;47.30;;;;;;5025799;28;20441;-69
2022/06/01 08:51:07;;;;;;;0.90;0.90;;;22.50;47.30;;;;;;5025548;28;20522;-69
2022/06/01 08:53:34;;;;;;;0.70;0.70;;;22.90;47.80;;;;;;5025520;28;20455;-69
2022/06/01 08:56:09;;;;;;;0.73;0.73;;;22.50;47.40;;;;;;5024836;28;20903;-69
2022/06/01 08:58:58;;;;;;;1.10;1.00;;;22.80;47.70;;;;;;5023350;28;20443;-69
2022/06/01 09:02:08;;;;;;;0.70;0.70;;;22.50;46.30;;;;;;5022116;28;20516;-69
2022/06/01 09:04:53;;;;;;;0.70;0.70;;;24.10;70.90;;;;;;5023635;28;20427;-69
2022/06/01 09:07:33;;;;;;;0.83;0.80;;;22.40;47.90;;;;;;5023157;28;20943;-69
2022/06/01 09:10:23;;;;;;;0.67;0.67;;;21.80;68.80;;;;;;5023129;28;20415;-69
2022/06/01 09:13:12;;;;;;;1.27;0.90;;;22.50;46.20;;;;;;5023604;28;20455;-69
2022/06/01 09:15:58;;;;;;;1.60;0.90;;;22.50;47.70;;;;;;5027091;28;20407;-70
2022/06/01 09:18:27;;;;;;;0.90;0.90;;;22.50;46.00;;;;;;5011955;28;20524;-69
2022/06/01 09:23:40;;;;;;;1.00;1.00;;;23.80;47.70;;;;;;5010306;28;20428;-69
2022/06/01 09:26:06;;;;;;;2.60;0.73;;;22.50;47.40;;;;;;5009443;28;20413;-70
2022/06/01 09:28:38;;;;;;;0.73;0.73;;;22.50;47.40;;;;;;5018573;28;20888;-70
2022/06/01 09:31:20;;;;;;;0.80;0.70;;;23.20;47.30;;;;;;5032687;28;20209;-70
2022/06/01 09:33:46;;;;;;;0.60;0.60;;;22.50;46.70;;;;;;5020643;28;20442;-69
2022/06/01 09:36:16;;;;;;;0.67;0.67;;;22.60;46.90;;;;;;5011915;28;20844;-69
2022/06/01 09:38:49;;;;;;;1.03;0.90;;;22.50;47.00;;;;;;5022134;28;20705;-69
2022/06/01 09:41:21;;;;;;;0.70;0.70;;;22.60;47.00;;;;;;5020594;28;20466;-69
2022/06/01 09:44:15;;;;;;;0.60;0.57;;;22.90;47.30;;;;;;5029171;28;20418;-69
2022/06/01 09:46:40;;;;;;;0.70;0.60;;;22.50;45.60;;;;;;5028833;28;20912;-69
2022/06/01 09:49:18;;;;;;;0.90;0.90;;;23.30;47.30;;;;;;5028963;28;20524;-69
2022/06/01 09:51:46;;;;;;;2.60;0.97;;;23.30;47.80;;;;;;5028756;28;20189;-69
2022/06/01 09:54:11;;;;;;;0.60;0.60;;;23.30;47.40;;;;;;5028657;28;20419;-69
2022/06/01 09:56:47;;;;;;;0.73;0.73;;;22.50;47.10;;;;;;5028196;28;20488;-69
2022/06/01 10:08:29;;;;;;;0.80;0.70;;;22.50;45.70;;;;;;5021191;28;20418;-70
2022/06/01 10:11:02;;;;;;;1.23;0.83;;;22.50;47.00;;;;;;5028541;28;20812;-69
2022/06/01 10:13:33;;;;;;;1.07;1.03;;;22.50;46.70;;;;;;5028652;28;20773;-70
2022/06/01 10:16:22;;;;;;;1.43;0.90;;;22.50;47.10;;;;;;5026242;28;20465;-70
2022/06/01 10:18:49;;;;;;;0.93;0.93;;;22.50;45.60;;;;;;5027439;28;20432;-70
2022/06/01 10:21:20;;;;;;;0.70;0.70;;;22.60;46.90;;;;;;5026922;28;20470;-70
2022/06/01 10:23:56;;;;;;;0.73;0.73;;;23.10;47.20;;;;;;5027955;28;21012;-69
2022/06/01 10:26:33;;;;;;;1.03;1.03;;;22.40;46.60;;;;;;5026168;28;20460;-70
2022/06/01 10:29:13;;;;;;;2.60;0.70;;;23.00;47.20;;;;;;5028040;28;20407;-70
2022/06/01 10:31:51;;;;;;;0.70;0.70;;;22.50;47.00;;;;;;5025502;28;20471;-70
2022/06/01 10:34:31;;;;;;;2.10;0.90;;;22.50;45.50;;;;;;5027884;28;20414;-70
2022/06/01 10:37:09;;;;;;;0.70;0.70;;;22.50;45.60;;;;;;5027824;28;20503;-70
2022/06/01 10:39:56;;;;;;;0.70;0.70;;;22.50;46.90;;;;;;5025126;28;20416;-70
2022/06/01 10:45:33;;;;;;;0.70;0.70;;;22.50;45.50;;;;;;5027621;28;20482;-70
2022/06/01 10:48:22;;;;;;;0.77;0.73;;;22.70;47.30;;;;;;5026831;28;20839;-70
2022/06/01 10:51:15;;;;;;;0.83;0.83;;;23.00;47.00;;;;;;5027695;28;20430;-70
2022/06/01 10:54:05;;;;;;;0.70;0.70;;;22.50;45.50;;;;;;5026394;28;20442;-69
2022/06/01 10:56:31;;;;;;;1.10;1.00;;;22.90;46.90;;;;;;5027028;28;20426;-69
2022/06/01 10:59:02;;;;;;;0.60;0.60;;;23.10;47.20;;;;;;5027201;28;20416;-69
2022/06/01 11:01:43;;;;;;;0.80;0.70;;;22.20;46.70;;;;;;5027117;28;20464;-69
2022/06/01 11:04:34;;;;;;;0.70;0.70;;;22.50;47.00;;;;;;5027534;28;20720;-69
2022/06/01 11:07:26;;;;;;;0.70;0.70;;;22.40;45.50;;;;;;5027841;28;20415;-69
2022/06/01 11:10:26;;;;;;;0.83;0.83;;;22.70;63.20;;;;;;5028347;28;20448;-69
2022/06/01 11:13:12;;;;;;;0.90;0.90;;;22.50;45.50;;;;;;5028453;28;20686;-69
2022/06/01 11:16:04;;;;;;;1.47;0.80;;;22.60;46.80;;;;;;5027661;28;20420;-69
2022/06/01 11:18:39;;;;;;;0.60;0.60;;;22.70;45.60;;;;;;5028109;28;20431;-69
2022/06/01 11:21:07;;;;;;;0.80;0.80;;;22.50;45.30;;;;;;5028065;28;20451;-70
2022/06/01 11:23:56;;;;;;;1.77;0.83;;;22.70;46.70;;;;;;5028086;28;20407;-70
2022/06/01 11:26:42;;;;;;;0.67;0.67;;;22.70;47.00;;;;;;5028105;28;20495;-69
2022/06/01 11:29:35;;;;;;;0.70;0.70;;;22.50;45.20;;;;;;5027926;28;20797;-69
2022/06/01 11:32:07;;;;;;;0.80;0.60;;;22.50;45.10;;;;;;5025023;28;20447;-69
2022/06/01 11:34:49;;;;;;;0.70;0.70;;;22.60;45.90;;;;;;5024619;28;21001;-69
2022/06/01 11:37:21;;;;;;;0.80;0.80;;;22.50;44.70;;;;;;5025108;28;20875;-69
2022/06/01 11:39:55;;;;;;;0.50;0.50;;;22.60;45.20;;;;;;5026805;28;20408;-68
2022/06/01 11:42:36;;;;;;;0.60;0.60;;;22.70;45.80;;;;;;5027519;28;20451;-69
2022/06/01 11:45:11;;;;;;;2.07;0.70;;;23.10;46.20;;;;;;5026813;28;20961;-69
2022/06/01 11:48:02;;;;;;;0.67;0.67;;;22.40;43.80;;;;;;5026852;28;20524;-69
2022/06/01 11:50:52;;;;;;;0.70;0.70;;;22.60;45.30;;;;;;5026246;28;20428;-69
2022/06/01 11:53:53;;;;;;;0.67;0.67;;;22.60;43.60;;;;;;5023296;28;20951;-69
2022/06/01 11:56:56;;;;;;;0.80;0.80;;;22.60;43.70;;;;;;5027571;28;20442;-69
2022/06/01 11:59:32;;;;;;;0.50;0.50;;;22.60;43.60;;;;;;5024876;28;20438;-69
2022/06/01 12:02:01;;;;;;;0.70;0.70;;;22.60;44.40;;;;;;5019205;28;20479;-69
2022/06/01 12:04:53;;;;;;;0.50;0.50;;;23.40;43.90;;;;;;5022266;28;20439;-69
2022/06/01 12:07:30;;;;;;;2.67;0.63;;;22.60;43.30;;;;;;5021895;28;20515;-69
2022/06/01 12:10:22;;;;;;;0.50;0.50;;;22.70;60.40;;;;;;5014547;28;20432;-69
2022/06/01 12:13:02;;;;;;;0.60;0.60;;;22.60;43.00;;;;;;5024981;28;20480;-69
2022/06/01 12:15:39;;;;;;;0.63;0.63;;;22.60;44.10;;;;;;5021572;28;20431;-69
2022/06/01 12:18:11;;;;;;;0.50;0.50;;;22.60;44.50;;;;;;5024792;28;20428;-69
2022/06/01 12:20:37;;;;;;;0.60;0.60;;;23.40;44.50;;;;;;5023020;28;20979;-69
2022/06/01 12:28:47;;;;;;;1.13;0.50;;;22.70;43.20;;;;;;5019245;28;20435;-69
2022/06/01 12:31:21;;;;;;;0.60;0.60;;;23.70;44.70;;;;;;5023456;28;20488;-69
2022/06/01 12:34:16;;;;;;;0.57;0.57;;;22.70;43.20;;;;;;5025809;28;20503;-69
2022/06/01 12:37:10;;;;;;;1.10;0.60;;;22.70;43.10;;;;;;5025003;28;20415;-69
2022/06/01 12:39:39;;;;;;;0.60;0.60;;;22.70;43.00;;;;;;5018109;28;20505;-69
2022/06/01 12:42:28;;;;;;;0.53;0.53;;;22.70;43.80;;;;;;5026011;28;20576;-69
2022/06/01 12:44:57;;;;;;;1.17;1.07;;;22.70;42.40;;;;;;5025695;28;20529;-69
2022/06/01 12:47:35;;;;;;;0.60;0.60;;;23.00;43.40;;;;;;5026011;28;20435;-69
2022/06/01 12:50:08;;;;;;;0.70;0.50;;;22.70;65.20;;;;;;5026150;28;20512;-69
2022/06/01 12:52:33;;;;;;;0.50;0.40;;;22.70;43.80;;;;;;5026206;28;20408;-69
2022/06/01 12:55:04;;;;;;;0.60;0.60;;;22.60;43.30;;;;;;5026278;28;20427;-69
2022/06/01 12:57:37;;;;;;;0.50;0.50;;;22.80;43.30;;;;;;5022978;28;20645;-70
2022/06/01 13:00:17;;;;;;;0.67;0.67;;;22.90;64.50;;;;;;5015811;28;20854;-70
2022/06/01 13:02:45;;;;;;;0.50;0.50;;;22.80;43.40;;;;;;5026111;28;20422;-70
2022/06/01 13:05:18;;;;;;;1.13;0.47;;;23.60;44.00;;;;;;5026113;28;20406;-70
2022/06/01 13:07:47;;;;;;;0.70;0.50;;;22.80;43.60;;;;;;5026068;28;20843;-70
2022/06/01 13:10:20;;;;;;;0.60;0.60;;;22.80;43.50;;;;;;5025725;28;20416;-70
2022/06/01 13:12:46;;;;;;;2.67;0.50;;;23.90;43.80;;;;;;5025992;28;20411;-70
2022/06/01 13:15:18;;;;;;;0.97;0.60;;;22.80;43.20;;;;;;5026184;28;20617;-70
2022/06/01 13:17:54;;;;;;;0.80;0.60;;;22.90;43.00;;;;;;5026032;28;20506;-70
2022/06/01 13:20:25;;;;;;;0.50;0.50;;;22.80;42.00;;;;;;5025807;28;20504;-70
2022/06/01 13:22:53;;;;;;;0.57;0.57;;;23.60;43.50;;;;;;5025726;28;20496;-69
2022/06/01 13:25:30;;;;;;;0.60;0.60;;;23.40;43.70;;;;;;5025948;28;20404;-69
2022/06/01 13:27:56;;;;;;;0.73;0.53;;;22.80;43.40;;;;;;5025831;28;20400;-69
2022/06/01 13:30:23;;;;;;;0.70;0.70;;;22.90;43.20;;;;;;5025643;28;20520;-69
2022/06/01 13:32:50;;;;;;;2.70;0.60;;;22.90;43.20;;;;;;5024346;28;20178;-69
2022/06/01 13:35:35;;;;;;;2.20;0.60;;;23.60;43.50;;;;;;5025568;28;20511;-69
2022/06/01 13:38:04;;;;;;;0.50;0.40;;;22.90;42.10;;;;;;5025884;28;20408;-69
2022/06/01 13:40:31;;;;;;;2.07;0.70;;;22.90;42.80;;;;;;5025570;28;20428;-69
2022/06/01 13:43:14;;;;;;;0.70;0.50;;;23.70;43.30;;;;;;5025635;28;20412;-69